This is the latest recevied weather packets stored in our database for station/object DG6HD-13. If no packets are shown the sender has not sent any weather packets the latest 10 day(s).
| Time | Temp. | Humidity | Pressure | Rain* | Wind** | Luminosity | Snow |
|---|---|---|---|---|---|---|---|
| 1777894922 | 18.33° C | 46% | 1013.1 hPa | - | - | - | - |
| 1777894021 | 19.44° C | 44% | 1013.1 hPa | - | - | - | - |
| 1777893120 | 18.89° C | 45% | 1013 hPa | - | - | - | - |
| 1777892220 | 18.33° C | 45% | 1013.1 hPa | - | - | - | - |
| 1777891319 | 17.22° C | 48% | 1013.1 hPa | - | - | - | - |
| 1777890418 | 18.89° C | 45% | 1013.1 hPa | - | - | - | - |
| 1777889517 | 18.89° C | 45% | 1013.1 hPa | - | - | - | - |
| 1777888616 | 18.89° C | 45% | 1013 hPa | - | - | - | - |
| 1777887715 | 18.89° C | 45% | 1013 hPa | - | - | - | - |
| 1777886815 | 18.89° C | 46% | 1013 hPa | - | - | - | - |
| 1777885914 | 18.89° C | 47% | 1012.9 hPa | - | - | - | - |
| 1777885013 | 18.33° C | 48% | 1012.8 hPa | - | - | - | - |
| 1777884112 | 18.33° C | 49% | 1012.3 hPa | - | - | - | - |
| 1777883211 | 18.33° C | 50% | 1012.3 hPa | - | - | - | - |
| 1777882310 | 17.78° C | 51% | 1011.8 hPa | - | - | - | - |
| 1777881409 | 17.22° C | 52% | 1011.7 hPa | - | - | - | - |
| 1777880508 | 17.22° C | 52% | 1011.5 hPa | - | - | - | - |
| 1777879607 | 16.67° C | 52% | 1011.4 hPa | - | - | - | - |
| 1777878706 | 16.67° C | 54% | 1011.2 hPa | - | - | - | - |
| 1777877805 | 16.11° C | 55% | 1011.1 hPa | - | - | - | - |
| 1777876905 | 16.11° C | 55% | 1010.9 hPa | - | - | - | - |
| 1777876004 | 15.56° C | 55% | 1010.7 hPa | - | - | - | - |
| 1777875103 | 15° C | 56% | 1010.6 hPa | - | - | - | - |
| 1777874202 | 15° C | 56% | 1010.4 hPa | - | - | - | - |
| 1777873301 | 14.44° C | 56% | 1010.4 hPa | - | - | - | - |
* Rain since midnight (hover to see other rain measurements)
** Current wind speed in m/s (hover to see current wind gust speed)